createdAt,value
2022-08-19T00:00:40.290Z,21.73
2022-08-19T00:03:06.712Z,21.81
2022-08-19T00:05:33.118Z,21.72
2022-08-19T00:07:59.509Z,21.61
2022-08-19T00:10:25.917Z,21.51
2022-08-19T00:12:52.426Z,21.58
2022-08-19T00:15:18.975Z,21.61
2022-08-19T00:17:45.371Z,21.45
2022-08-19T00:20:11.759Z,21.47
2022-08-19T00:22:38.167Z,21.41
2022-08-19T00:25:04.571Z,21.38
2022-08-19T00:27:30.997Z,21.47
2022-08-19T00:29:57.414Z,21.40
2022-08-19T00:32:23.971Z,21.21
2022-08-19T00:34:50.425Z,21.01
2022-08-19T00:37:16.824Z,21.08
2022-08-19T00:39:43.346Z,21.12
2022-08-19T00:42:09.785Z,21.21
2022-08-19T00:44:36.174Z,21.23
2022-08-19T00:47:02.559Z,21.30
2022-08-19T00:49:29.855Z,21.38
2022-08-19T00:51:56.236Z,21.44
2022-08-19T00:54:28.629Z,21.40
2022-08-19T00:56:57.718Z,21.65
2022-08-19T00:59:56.411Z,21.52
2022-08-19T01:02:10.600Z,21.36
2022-08-19T01:04:36.999Z,21.32
2022-08-19T01:07:03.400Z,21.39
2022-08-19T01:09:29.793Z,21.33
2022-08-19T01:11:59.244Z,21.32
2022-08-19T01:14:25.620Z,21.36
2022-08-19T01:16:52.046Z,21.32
2022-08-19T01:19:18.423Z,21.29
2022-08-19T01:21:44.825Z,21.42
2022-08-19T01:24:11.224Z,21.52
2022-08-19T01:26:37.603Z,21.35
2022-08-19T01:29:05.223Z,21.38
2022-08-19T01:31:32.642Z,21.39
2022-08-19T01:33:59.537Z,21.41
2022-08-19T01:36:25.917Z,21.58
2022-08-19T01:38:52.365Z,21.60
2022-08-19T01:41:18.758Z,21.49
2022-08-19T01:44:09.865Z,21.59
2022-08-19T01:46:31.578Z,21.61
2022-08-19T01:48:57.990Z,21.60
2022-08-19T01:51:24.377Z,21.70
2022-08-19T01:53:50.773Z,21.43
2022-08-19T01:56:17.244Z,21.65
2022-08-19T01:58:43.649Z,21.49
2022-08-19T02:01:10.058Z,21.61
2022-08-19T02:03:36.585Z,21.46
2022-08-19T02:06:03.016Z,21.31
2022-08-19T02:08:29.426Z,21.17
2022-08-19T02:10:55.836Z,21.13
2022-08-19T02:13:26.212Z,21.06
2022-08-19T02:15:52.992Z,21.12
2022-08-19T02:18:19.385Z,21.19
2022-08-19T02:20:45.774Z,21.31
2022-08-19T02:23:13.790Z,21.48
2022-08-19T02:25:42.389Z,21.27
2022-08-19T02:28:08.827Z,21.28
2022-08-19T02:30:35.221Z,21.32
2022-08-19T02:33:01.640Z,21.52
2022-08-19T02:35:28.056Z,21.53
2022-08-19T02:37:54.482Z,21.50
2022-08-19T02:40:20.916Z,21.51
2022-08-19T02:42:47.396Z,21.57
2022-08-19T02:45:13.816Z,21.49
2022-08-19T02:47:40.264Z,21.48
2022-08-19T02:50:06.655Z,21.48
2022-08-19T02:52:33.055Z,21.31
2022-08-19T02:54:59.471Z,21.24
2022-08-19T02:57:25.862Z,21.18
2022-08-19T02:59:52.252Z,21.18
2022-08-19T03:02:18.752Z,21.23
2022-08-19T03:04:45.235Z,21.24
2022-08-19T03:07:11.660Z,21.23
2022-08-19T03:09:38.088Z,21.14
2022-08-19T03:12:04.590Z,21.06
2022-08-19T03:14:30.979Z,21.06
2022-08-19T03:16:57.385Z,21.19
2022-08-19T03:19:23.854Z,21.21
2022-08-19T03:21:50.253Z,21.33
2022-08-19T03:24:16.657Z,21.31
2022-08-19T03:26:43.061Z,21.21
2022-08-19T03:29:09.570Z,21.25
2022-08-19T03:31:43.843Z,21.04
2022-08-19T03:34:12.224Z,20.91
2022-08-19T03:36:38.629Z,20.83
2022-08-19T03:39:05.032Z,20.73
2022-08-19T03:41:43.299Z,20.65
2022-08-19T03:44:16.618Z,20.48
2022-08-19T03:46:44.705Z,20.45
2022-08-19T03:49:11.306Z,20.59
2022-08-19T03:51:40.855Z,20.54
2022-08-19T03:54:07.260Z,20.49
2022-08-19T03:56:33.658Z,20.46
2022-08-19T03:59:00.058Z,20.44
2022-08-19T04:01:35.040Z,20.45
2022-08-19T04:04:02.049Z,20.52
2022-08-19T04:06:29.720Z,20.69
2022-08-19T04:08:56.124Z,20.77
2022-08-19T04:11:22.544Z,20.68
2022-08-19T04:14:08.927Z,20.63
2022-08-19T04:16:35.436Z,20.55
2022-08-19T04:19:01.827Z,20.61
2022-08-19T04:21:28.233Z,20.65
2022-08-19T04:23:54.637Z,20.50
2022-08-19T04:26:22.283Z,20.41
2022-08-19T04:28:48.677Z,20.58
2022-08-19T04:31:15.090Z,20.71
2022-08-19T04:33:41.479Z,20.73
2022-08-19T04:36:07.872Z,20.47
2022-08-19T04:38:34.330Z,20.47
2022-08-19T04:41:00.804Z,20.57
2022-08-19T04:43:27.177Z,20.43
2022-08-19T04:45:56.445Z,20.38
2022-08-19T04:48:27.958Z,20.48
2022-08-19T04:50:54.493Z,20.50
2022-08-19T04:53:20.917Z,20.39
2022-08-19T04:55:47.333Z,20.48
2022-08-19T04:58:13.722Z,20.30
2022-08-19T05:00:41.152Z,20.33
2022-08-19T05:03:07.750Z,20.27
2022-08-19T05:05:45.229Z,20.18
2022-08-19T05:08:11.896Z,20.27
2022-08-19T05:10:41.555Z,20.24
2022-08-19T05:13:08.500Z,20.28
2022-08-19T05:15:34.892Z,20.15
2022-08-19T05:18:01.272Z,20.10
2022-08-19T05:20:27.673Z,20.06
2022-08-19T05:22:54.185Z,19.86
2022-08-19T05:25:20.838Z,19.85
2022-08-19T05:27:47.393Z,19.90
2022-08-19T05:30:13.803Z,19.88
2022-08-19T05:32:40.203Z,20.06
2022-08-19T05:35:06.608Z,20.07
2022-08-19T05:37:32.983Z,20.21
2022-08-19T05:39:59.441Z,20.10
2022-08-19T05:42:25.864Z,19.94
2022-08-19T05:44:52.274Z,19.80
2022-08-19T05:47:18.681Z,19.70
2022-08-19T05:49:45.092Z,19.66
2022-08-19T05:52:11.539Z,19.71
2022-08-19T05:54:37.956Z,19.94
2022-08-19T05:57:04.345Z,20.05
2022-08-19T05:59:30.736Z,20.10
2022-08-19T06:01:58.014Z,20.27
2022-08-19T06:04:24.438Z,20.33
2022-08-19T06:06:50.833Z,20.36
2022-08-19T06:09:17.235Z,20.40
2022-08-19T06:11:43.634Z,20.36
2022-08-19T06:14:10.074Z,20.24
2022-08-19T06:16:43.010Z,20.30
2022-08-19T06:19:09.426Z,20.25
2022-08-19T06:21:35.822Z,20.15
2022-08-19T06:24:02.273Z,20.06
2022-08-19T06:26:28.666Z,19.77
2022-08-19T06:28:55.074Z,19.82
2022-08-19T06:31:21.470Z,20.02
2022-08-19T06:33:47.892Z,20.16
2022-08-19T06:36:16.596Z,19.93
2022-08-19T06:38:42.992Z,19.92
2022-08-19T06:41:12.306Z,19.91
2022-08-19T06:43:42.246Z,20.16
2022-08-19T06:46:08.779Z,20.17
2022-08-19T06:48:44.945Z,20.28
2022-08-19T06:51:12.349Z,20.15
2022-08-19T06:53:38.819Z,20.10
2022-08-19T06:56:05.270Z,20.17
2022-08-19T06:58:31.675Z,20.52
2022-08-19T07:00:58.297Z,20.48
2022-08-19T07:03:24.707Z,19.77
2022-08-19T07:05:51.091Z,19.43
2022-08-19T07:08:17.565Z,18.96
2022-08-19T07:10:45.119Z,18.87
2022-08-19T07:13:11.529Z,18.74
2022-08-19T07:15:37.913Z,18.96
2022-08-19T07:18:06.252Z,19.20
2022-08-19T07:20:32.642Z,19.10
2022-08-19T07:23:01.080Z,19.40
2022-08-19T07:25:32.346Z,18.65
2022-08-19T07:28:01.359Z,18.75
2022-08-19T07:30:28.068Z,18.93
2022-08-19T07:32:54.460Z,18.95
2022-08-19T07:35:20.858Z,18.94
2022-08-19T07:37:47.266Z,18.67
2022-08-19T07:40:13.785Z,18.58
2022-08-19T07:42:40.284Z,18.56
2022-08-19T07:45:06.681Z,18.84
2022-08-19T07:47:48.274Z,18.99
2022-08-19T07:50:17.461Z,18.71
2022-08-19T07:52:43.839Z,18.65
2022-08-19T07:55:39.899Z,18.87
2022-08-19T07:57:56.659Z,18.62
2022-08-19T08:00:24.304Z,18.71
2022-08-19T08:02:50.978Z,18.71
2022-08-19T08:05:17.814Z,18.65
2022-08-19T08:07:46.252Z,18.68
2022-08-19T08:10:20.931Z,18.90
2022-08-19T08:12:58.380Z,18.60
2022-08-19T08:15:36.613Z,18.70
2022-08-19T08:18:06.377Z,18.70
2022-08-19T08:20:34.153Z,18.72
2022-08-19T08:23:04.549Z,18.76
2022-08-19T08:25:32.549Z,18.48
2022-08-19T08:28:00.863Z,18.27
2022-08-19T08:30:27.256Z,18.39
2022-08-19T08:32:57.664Z,18.44
2022-08-19T08:35:24.730Z,18.07
2022-08-19T08:37:51.331Z,18.32
2022-08-19T08:40:17.926Z,18.43
2022-08-19T08:42:44.402Z,18.69
2022-08-19T08:45:10.832Z,18.63
2022-08-19T08:47:37.221Z,18.87
2022-08-19T08:50:04.683Z,18.81
2022-08-19T08:52:32.040Z,18.94
2022-08-19T08:54:59.691Z,18.82
2022-08-19T08:57:26.084Z,19.07
2022-08-19T08:59:54.655Z,19.47
2022-08-19T09:02:21.042Z,19.64
2022-08-19T09:04:47.462Z,19.44
2022-08-19T09:07:18.740Z,19.45
2022-08-19T09:10:01.307Z,18.95
2022-08-19T09:12:27.693Z,19.10
2022-08-19T09:14:54.110Z,19.00
2022-08-19T09:17:20.512Z,18.99
2022-08-19T09:19:46.962Z,19.05
2022-08-19T09:22:13.763Z,19.06
2022-08-19T09:24:51.927Z,18.91
2022-08-19T09:27:18.907Z,18.66
2022-08-19T09:29:45.378Z,18.62
2022-08-19T09:32:26.802Z,18.82
2022-08-19T09:34:53.556Z,18.68
2022-08-19T09:37:23.728Z,18.69
2022-08-19T09:39:51.346Z,18.77
2022-08-19T09:42:20.294Z,18.63
2022-08-19T09:44:57.031Z,18.80
2022-08-19T09:47:25.808Z,19.33
2022-08-19T09:49:52.210Z,19.27
2022-08-19T09:52:18.595Z,18.85
2022-08-19T09:54:45.008Z,18.61
2022-08-19T09:57:18.381Z,18.74
2022-08-19T09:59:44.807Z,18.67
2022-08-19T10:02:11.382Z,18.47
2022-08-19T10:04:37.801Z,18.68
2022-08-19T10:07:04.196Z,18.39
2022-08-19T10:09:34.535Z,18.73
2022-08-19T10:12:01.525Z,18.30
2022-08-19T10:14:29.178Z,18.20
2022-08-19T10:16:55.566Z,18.46
2022-08-19T10:19:25.331Z,18.50
2022-08-19T10:21:52.576Z,18.46
2022-08-19T10:24:19.504Z,18.85
2022-08-19T10:26:45.905Z,19.36
2022-08-19T10:29:13.292Z,19.09
2022-08-19T10:32:02.113Z,19.27
2022-08-19T10:34:29.169Z,19.64
2022-08-19T10:36:56.308Z,19.63
2022-08-19T10:39:30.671Z,19.62
2022-08-19T10:41:57.330Z,19.89
2022-08-19T10:44:23.770Z,20.05
2022-08-19T10:46:50.386Z,20.05
2022-08-19T10:49:16.782Z,20.36
2022-08-19T10:51:46.629Z,20.54
2022-08-19T10:54:15.006Z,20.51
2022-08-19T10:56:41.406Z,20.60
2022-08-19T10:59:07.828Z,21.05
2022-08-19T11:01:34.304Z,21.14
2022-08-19T11:04:00.778Z,20.89
2022-08-19T11:06:27.160Z,20.79
2022-08-19T11:08:53.607Z,20.32
2022-08-19T11:11:20.005Z,20.44
2022-08-19T11:13:46.410Z,20.52
2022-08-19T11:16:12.802Z,20.81
2022-08-19T11:18:39.244Z,20.37
2022-08-19T11:21:06.825Z,20.40
2022-08-19T11:23:33.439Z,20.56
2022-08-19T11:25:59.883Z,20.28
2022-08-19T11:28:26.278Z,20.29
2022-08-19T11:30:52.695Z,20.10
2022-08-19T11:33:19.120Z,19.87
2022-08-19T11:35:45.520Z,19.59
2022-08-19T11:38:11.924Z,19.91
2022-08-19T11:40:38.338Z,20.10
2022-08-19T11:43:04.785Z,20.10
2022-08-19T11:45:31.168Z,19.75
2022-08-19T11:47:57.630Z,20.02
2022-08-19T11:50:24.056Z,19.94
2022-08-19T11:52:50.463Z,20.25
2022-08-19T11:55:16.894Z,20.36
2022-08-19T11:57:43.308Z,20.23
2022-08-19T12:00:09.782Z,20.59
2022-08-19T12:02:36.286Z,20.58
2022-08-19T12:05:02.735Z,20.40
2022-08-19T12:07:29.145Z,20.55
2022-08-19T12:09:55.538Z,20.74
2022-08-19T12:12:21.954Z,20.72
2022-08-19T12:14:48.373Z,21.05
2022-08-19T12:17:14.803Z,21.06
2022-08-19T12:19:41.221Z,20.82
2022-08-19T12:22:07.621Z,20.83
2022-08-19T12:24:34.011Z,20.57
2022-08-19T12:27:00.923Z,20.44
2022-08-19T12:29:29.655Z,20.70
2022-08-19T12:31:56.046Z,20.76
2022-08-19T12:34:22.428Z,20.37
2022-08-19T12:36:48.901Z,20.42
2022-08-19T12:39:15.340Z,20.54
2022-08-19T12:41:43.312Z,20.39
2022-08-19T12:44:21.312Z,20.72
2022-08-19T12:46:55.475Z,20.33
2022-08-19T12:49:21.936Z,20.44
2022-08-19T12:52:08.346Z,20.49
2022-08-19T12:54:34.756Z,20.41
2022-08-19T12:57:01.176Z,20.36
2022-08-19T12:59:27.604Z,20.48
2022-08-19T13:01:54.001Z,20.64
2022-08-19T13:04:20.443Z,20.66
2022-08-19T13:06:46.854Z,20.49
2022-08-19T13:09:13.302Z,20.92
2022-08-19T13:11:39.728Z,21.33
2022-08-19T13:14:06.146Z,21.43
2022-08-19T13:16:32.557Z,20.75
2022-08-19T13:18:58.967Z,20.76
2022-08-19T13:21:25.370Z,20.99
2022-08-19T13:23:51.763Z,21.17
2022-08-19T13:26:18.188Z,20.85
2022-08-19T13:28:44.611Z,20.91
2022-08-19T13:31:11.066Z,20.97
2022-08-19T13:33:40.227Z,21.08
2022-08-19T13:36:06.641Z,21.24
2022-08-19T13:38:36.134Z,21.44
2022-08-19T13:41:07.809Z,21.49
2022-08-19T13:43:36.574Z,21.58
2022-08-19T13:46:02.998Z,21.71
2022-08-19T13:48:29.490Z,21.80
2022-08-19T13:50:55.915Z,21.65
2022-08-19T13:53:22.322Z,21.30
2022-08-19T13:55:48.752Z,21.19
2022-08-19T13:58:15.165Z,20.99
2022-08-19T14:00:41.685Z,20.84
2022-08-19T14:03:09.442Z,20.88
2022-08-19T14:05:35.958Z,20.99
2022-08-19T14:08:02.389Z,20.83
2022-08-19T14:10:28.779Z,20.93
2022-08-19T14:12:55.179Z,21.06
2022-08-19T14:15:21.580Z,20.98
2022-08-19T14:17:47.997Z,20.60
2022-08-19T14:20:17.514Z,20.56
2022-08-19T14:22:45.042Z,20.83
2022-08-19T14:25:11.501Z,20.59
2022-08-19T14:27:37.916Z,20.59
2022-08-19T14:30:04.421Z,20.79
2022-08-19T14:32:30.962Z,21.20
2022-08-19T14:34:57.382Z,21.24
2022-08-19T14:37:23.765Z,21.34
2022-08-19T14:39:51.511Z,21.34
2022-08-19T14:42:17.945Z,21.15
2022-08-19T14:44:44.325Z,20.92
2022-08-19T14:47:10.737Z,20.82
2022-08-19T14:49:42.315Z,20.98
2022-08-19T14:52:12.202Z,20.99
2022-08-19T14:54:38.609Z,20.83
2022-08-19T14:57:05.048Z,20.87
2022-08-19T14:59:31.501Z,20.80
2022-08-19T15:01:58.031Z,20.59
2022-08-19T15:04:24.456Z,20.61
2022-08-19T15:06:50.892Z,20.82
2022-08-19T15:09:17.315Z,20.60
2022-08-19T15:11:43.753Z,20.47
2022-08-19T15:14:10.174Z,20.57
2022-08-19T15:16:36.593Z,20.66
2022-08-19T15:19:03.111Z,20.68
2022-08-19T15:21:29.593Z,20.72
2022-08-19T15:23:56.041Z,20.79
2022-08-19T15:26:22.478Z,20.93
2022-08-19T15:28:48.955Z,21.07
2022-08-19T15:31:17.203Z,20.99
2022-08-19T15:33:53.207Z,21.17
2022-08-19T15:36:19.631Z,21.26
2022-08-19T15:38:46.990Z,21.28
2022-08-19T15:41:14.748Z,21.24
2022-08-19T15:43:41.148Z,21.24
2022-08-19T15:46:07.598Z,21.22
2022-08-19T15:48:34.027Z,21.08
2022-08-19T15:51:00.532Z,20.72
2022-08-19T15:53:27.008Z,20.58
2022-08-19T15:55:53.407Z,20.66
2022-08-19T15:58:28.212Z,20.66
2022-08-19T16:00:55.517Z,20.61
2022-08-19T16:03:22.037Z,20.30
2022-08-19T16:05:48.424Z,20.41
2022-08-19T16:08:14.839Z,20.49
2022-08-19T16:10:41.250Z,20.39
2022-08-19T16:13:07.638Z,20.37
2022-08-19T16:15:34.062Z,20.50
2022-08-19T16:18:00.455Z,20.63
2022-08-19T16:20:27.130Z,20.71
2022-08-19T16:22:53.658Z,20.60
2022-08-19T16:25:20.138Z,20.50
2022-08-19T16:27:54.184Z,20.35
2022-08-19T16:30:33.017Z,20.45
2022-08-19T16:32:59.418Z,20.50
2022-08-19T16:35:25.826Z,20.31
2022-08-19T16:37:52.249Z,20.27
2022-08-19T16:40:18.720Z,20.57
2022-08-19T16:42:45.190Z,20.44
2022-08-19T16:45:11.613Z,20.43
2022-08-19T16:47:38.038Z,20.49
2022-08-19T16:50:04.448Z,20.52
2022-08-19T16:52:30.846Z,20.61
2022-08-19T16:54:57.253Z,20.67
2022-08-19T16:57:23.670Z,20.43
2022-08-19T16:59:50.082Z,20.50
2022-08-19T17:02:16.471Z,20.58
2022-08-19T17:04:42.864Z,20.56
2022-08-19T17:07:09.261Z,20.77
2022-08-19T17:09:35.693Z,21.08
2022-08-19T17:12:04.456Z,21.18
2022-08-19T17:14:30.870Z,21.33
2022-08-19T17:16:57.290Z,21.47
2022-08-19T17:19:23.700Z,21.56
2022-08-19T17:21:50.115Z,21.54
2022-08-19T17:24:16.523Z,21.35
2022-08-19T17:26:42.940Z,21.28
2022-08-19T17:29:09.332Z,21.34
2022-08-19T17:31:35.728Z,21.24
2022-08-19T17:34:07.430Z,21.19
2022-08-19T17:36:35.758Z,20.94
2022-08-19T17:39:02.291Z,21.01
2022-08-19T17:41:28.698Z,20.85
2022-08-19T17:43:55.159Z,20.84
2022-08-19T17:46:21.557Z,20.90
2022-08-19T17:48:51.223Z,20.97
2022-08-19T17:51:18.427Z,21.05
2022-08-19T17:53:48.432Z,20.94
2022-08-19T17:56:14.855Z,21.13
2022-08-19T17:58:41.553Z,20.83
2022-08-19T18:01:11.522Z,20.90
2022-08-19T18:03:39.515Z,21.11
2022-08-19T18:06:05.961Z,21.25
2022-08-19T18:08:32.370Z,21.10
2022-08-19T18:10:58.783Z,21.26
2022-08-19T18:13:25.191Z,21.34
2022-08-19T18:15:51.676Z,21.41
2022-08-19T18:18:18.093Z,21.50
2022-08-19T18:20:44.486Z,21.48
2022-08-19T18:23:43.869Z,21.39
2022-08-19T18:25:57.292Z,21.35
2022-08-19T18:28:23.723Z,20.74
2022-08-19T18:30:50.126Z,20.45
2022-08-19T18:33:16.542Z,20.61
2022-08-19T18:35:44.079Z,20.75
2022-08-19T18:38:10.703Z,20.83
2022-08-19T18:40:37.119Z,20.81
2022-08-19T18:43:03.539Z,20.88
2022-08-19T18:45:29.964Z,20.70
2022-08-19T18:47:56.530Z,20.71
2022-08-19T18:50:23.069Z,20.64
2022-08-19T18:52:49.475Z,20.61
2022-08-19T18:55:15.874Z,20.57
2022-08-19T18:57:42.284Z,20.45
2022-08-19T19:00:08.672Z,20.40
2022-08-19T19:02:35.088Z,20.39
2022-08-19T19:05:06.470Z,20.51
2022-08-19T19:07:33.638Z,20.55
2022-08-19T19:10:00.157Z,20.51
2022-08-19T19:12:26.594Z,20.48
2022-08-19T19:14:53.020Z,20.44
2022-08-19T19:17:19.478Z,20.56
2022-08-19T19:19:45.936Z,20.53
2022-08-19T19:22:12.341Z,20.49
2022-08-19T19:24:38.745Z,20.53
2022-08-19T19:27:05.215Z,20.55
2022-08-19T19:29:33.394Z,20.70
2022-08-19T19:31:59.795Z,20.79
2022-08-19T19:34:29.655Z,20.79
2022-08-19T19:36:56.546Z,20.81
2022-08-19T19:39:29.726Z,20.78
2022-08-19T19:42:12.323Z,20.81
2022-08-19T19:44:40.108Z,20.79
2022-08-19T19:47:13.699Z,20.74
2022-08-19T19:49:57.926Z,20.68
2022-08-19T19:52:26.530Z,20.71
2022-08-19T19:54:52.933Z,20.58
2022-08-19T19:57:19.374Z,20.70
2022-08-19T19:59:51.280Z,20.69
2022-08-19T20:02:18.079Z,20.66
2022-08-19T20:04:44.487Z,20.74
2022-08-19T20:07:10.884Z,20.70
2022-08-19T20:09:58.205Z,20.74
2022-08-19T20:12:23.660Z,20.76
2022-08-19T20:14:50.111Z,20.76
2022-08-19T20:17:16.508Z,20.74
2022-08-19T20:19:42.890Z,20.75
2022-08-19T20:22:09.300Z,20.79
2022-08-19T20:24:37.356Z,20.72
2022-08-19T20:27:03.811Z,20.73
2022-08-19T20:29:39.410Z,20.79
2022-08-19T20:32:07.735Z,20.86
2022-08-19T20:34:34.184Z,20.85
2022-08-19T20:37:00.583Z,20.85
2022-08-19T20:39:27.003Z,20.61
2022-08-19T20:41:53.477Z,20.78
2022-08-19T20:44:19.889Z,20.87
2022-08-19T20:46:54.210Z,20.92
2022-08-19T20:49:22.093Z,21.07
2022-08-19T20:51:48.493Z,21.07
2022-08-19T20:54:14.891Z,21.17
2022-08-19T20:56:41.324Z,21.18
2022-08-19T20:59:07.789Z,21.13
2022-08-19T21:01:34.173Z,21.17
2022-08-19T21:04:00.589Z,21.19
2022-08-19T21:06:26.997Z,21.12
2022-08-19T21:08:54.190Z,21.13
2022-08-19T21:11:20.847Z,21.09
2022-08-19T21:13:47.293Z,21.18
2022-08-19T21:16:13.693Z,21.14
2022-08-19T21:18:40.098Z,21.17
2022-08-19T21:21:06.488Z,21.05
2022-08-19T21:23:32.886Z,20.89
2022-08-19T21:25:59.288Z,20.90
2022-08-19T21:28:35.003Z,20.99
2022-08-19T21:31:02.695Z,20.93
2022-08-19T21:33:32.280Z,20.96
2022-08-19T21:35:58.671Z,21.07
2022-08-19T21:38:25.124Z,21.13
2022-08-19T21:40:51.528Z,21.07
2022-08-19T21:43:17.912Z,21.17
2022-08-19T21:45:44.309Z,21.20
2022-08-19T21:48:10.715Z,21.25
2022-08-19T21:50:37.131Z,21.24
2022-08-19T21:53:03.526Z,21.31
2022-08-19T21:55:29.933Z,21.26
2022-08-19T21:57:56.465Z,21.29
2022-08-19T22:00:22.899Z,21.34
2022-08-19T22:02:49.338Z,21.37
2022-08-19T22:05:15.736Z,21.39
2022-08-19T22:07:42.130Z,21.37
2022-08-19T22:10:08.673Z,21.24
2022-08-19T22:12:35.056Z,21.26
2022-08-19T22:15:01.476Z,21.30
2022-08-19T22:17:27.878Z,21.32
2022-08-19T22:19:54.282Z,21.31
2022-08-19T22:22:20.684Z,21.16
2022-08-19T22:24:47.070Z,21.02
2022-08-19T22:27:13.496Z,20.84
2022-08-19T22:29:39.909Z,20.76
2022-08-19T22:32:26.946Z,20.79
2022-08-19T22:34:52.690Z,20.64
2022-08-19T22:37:19.107Z,20.67
2022-08-19T22:39:45.565Z,20.72
2022-08-19T22:42:12.035Z,20.86
2022-08-19T22:44:38.424Z,20.98
2022-08-19T22:47:04.822Z,20.76
2022-08-19T22:49:31.236Z,20.65
2022-08-19T22:51:57.629Z,20.63
2022-08-19T22:54:24.045Z,20.88
2022-08-19T22:56:50.435Z,20.91
2022-08-19T22:59:16.842Z,20.98
2022-08-19T23:01:43.245Z,21.04
2022-08-19T23:04:09.640Z,21.12
2022-08-19T23:06:40.243Z,21.18
2022-08-19T23:09:08.789Z,21.10
2022-08-19T23:11:35.299Z,21.10
2022-08-19T23:14:01.855Z,20.87
2022-08-19T23:16:28.280Z,20.86
2022-08-19T23:18:56.035Z,20.69
2022-08-19T23:21:22.648Z,20.50
2022-08-19T23:23:49.037Z,20.22
2022-08-19T23:26:15.441Z,20.05
2022-08-19T23:28:41.833Z,20.00
2022-08-19T23:31:08.242Z,20.06
2022-08-19T23:33:50.880Z,20.41
2022-08-19T23:36:18.112Z,20.67
2022-08-19T23:38:44.531Z,20.79
2022-08-19T23:41:10.924Z,20.80
2022-08-19T23:43:37.321Z,20.66
2022-08-19T23:46:10.440Z,20.69
2022-08-19T23:48:37.172Z,20.79
2022-08-19T23:51:03.566Z,20.87
2022-08-19T23:53:29.971Z,20.87
2022-08-19T23:55:56.379Z,20.86
2022-08-19T23:58:22.789Z,20.84
